createdAt,value
2017-09-14T00:01:34.981Z,14.60
2017-09-14T00:04:02.491Z,14.60
2017-09-14T00:06:29.967Z,14.60
2017-09-14T00:08:58.201Z,14.60
2017-09-14T00:11:25.690Z,14.50
2017-09-14T00:13:53.962Z,14.50
2017-09-14T00:16:22.198Z,14.50
2017-09-14T00:18:49.670Z,14.40
2017-09-14T00:21:17.141Z,14.40
2017-09-14T00:23:44.606Z,14.50
2017-09-14T00:26:12.925Z,14.40
2017-09-14T00:28:40.388Z,14.30
2017-09-14T00:31:07.860Z,14.40
2017-09-14T00:33:35.334Z,14.40
2017-09-14T00:36:02.854Z,14.30
2017-09-14T00:38:30.319Z,14.30
2017-09-14T00:40:57.791Z,14.40
2017-09-14T00:43:25.266Z,14.30
2017-09-14T00:45:52.738Z,14.30
2017-09-14T00:48:20.980Z,14.30
2017-09-14T00:50:48.470Z,14.20
2017-09-14T00:53:16.703Z,14.40
2017-09-14T00:55:44.175Z,14.30
2017-09-14T00:58:11.751Z,14.30
2017-09-14T01:00:39.222Z,14.30
2017-09-14T01:03:07.471Z,14.30
2017-09-14T01:05:34.943Z,14.20
2017-09-14T01:08:02.414Z,14.20
2017-09-14T01:10:30.655Z,14.20
2017-09-14T01:12:58.126Z,14.20
2017-09-14T01:15:43.336Z,14.30
2017-09-14T01:18:11.320Z,14.30
2017-09-14T01:20:38.782Z,14.30
2017-09-14T01:23:06.272Z,14.40
2017-09-14T01:25:33.746Z,14.40
2017-09-14T01:28:01.218Z,14.40
2017-09-14T01:30:29.524Z,14.40
2017-09-14T01:32:57.014Z,14.30
2017-09-14T01:35:24.490Z,14.50
2017-09-14T01:37:51.949Z,14.50
2017-09-14T01:40:20.199Z,14.60
2017-09-14T01:42:47.733Z,14.50
2017-09-14T01:45:15.240Z,14.60
2017-09-14T01:47:42.706Z,14.70
2017-09-14T01:50:10.971Z,14.60
2017-09-14T01:52:39.258Z,14.70
2017-09-14T01:55:07.498Z,14.60
2017-09-14T01:57:34.966Z,14.60
2017-09-14T02:00:02.527Z,14.60
2017-09-14T02:02:29.995Z,14.60
2017-09-14T02:04:57.500Z,14.60
2017-09-14T02:07:25.021Z,14.70
2017-09-14T02:09:53.267Z,14.70
2017-09-14T02:12:20.727Z,14.60
2017-09-14T02:14:48.204Z,14.60
2017-09-14T02:17:16.491Z,14.50
2017-09-14T02:19:44.731Z,14.50
2017-09-14T02:22:12.197Z,14.50
2017-09-14T02:24:39.665Z,14.40
2017-09-14T02:27:07.894Z,14.30
2017-09-14T02:29:35.373Z,14.30
2017-09-14T02:32:02.850Z,14.40
2017-09-14T02:34:30.428Z,14.30
2017-09-14T02:36:58.689Z,14.30
2017-09-14T02:39:26.926Z,14.30
2017-09-14T02:41:54.395Z,14.20
2017-09-14T02:44:21.867Z,14.30
2017-09-14T02:46:49.341Z,14.40
2017-09-14T02:49:17.576Z,14.50
2017-09-14T02:51:45.046Z,14.50
2017-09-14T02:54:12.614Z,14.50
2017-09-14T02:56:40.173Z,14.50
2017-09-14T02:59:07.638Z,14.50
2017-09-14T03:01:35.877Z,14.30
2017-09-14T03:04:03.474Z,14.30
2017-09-14T03:06:31.713Z,14.30
2017-09-14T03:08:59.199Z,14.30
2017-09-14T03:11:26.682Z,14.30
2017-09-14T03:13:54.159Z,14.30
2017-09-14T03:16:21.661Z,14.30
2017-09-14T03:18:49.142Z,14.30
2017-09-14T03:21:17.377Z,14.30
2017-09-14T03:23:44.850Z,14.20
2017-09-14T03:26:12.414Z,14.30
2017-09-14T03:28:39.971Z,14.30
2017-09-14T03:31:08.206Z,14.20
2017-09-14T03:33:35.685Z,14.10
2017-09-14T03:36:03.219Z,14.20
2017-09-14T03:38:30.686Z,14.10
2017-09-14T03:40:58.166Z,14.10
2017-09-14T03:43:25.629Z,14.10
2017-09-14T03:45:53.087Z,14.10
2017-09-14T03:48:20.549Z,14.00
2017-09-14T03:50:48.013Z,14.00
2017-09-14T03:53:16.254Z,14.00
2017-09-14T03:55:43.720Z,14.00
2017-09-14T03:58:11.245Z,14.00
2017-09-14T04:00:38.715Z,14.10
2017-09-14T04:03:06.178Z,14.00
2017-09-14T04:05:33.657Z,14.10
2017-09-14T04:08:01.121Z,14.10
2017-09-14T04:10:28.604Z,14.00
2017-09-14T04:12:56.066Z,14.00
2017-09-14T04:15:23.547Z,14.00
2017-09-14T04:17:51.003Z,14.00
2017-09-14T04:20:18.502Z,14.00
2017-09-14T04:22:46.734Z,14.00
2017-09-14T04:25:14.213Z,14.00
2017-09-14T04:27:41.669Z,14.00
2017-09-14T04:30:09.246Z,14.00
2017-09-14T04:32:36.803Z,14.00
2017-09-14T04:35:04.279Z,14.00
2017-09-14T04:37:32.515Z,14.10
2017-09-14T04:40:00.001Z,14.10
2017-09-14T04:42:28.244Z,14.20
2017-09-14T04:44:55.706Z,14.10
2017-09-14T04:47:23.174Z,14.20
2017-09-14T04:49:50.740Z,14.20
2017-09-14T04:52:18.218Z,14.30
2017-09-14T04:54:46.470Z,14.30
2017-09-14T04:57:13.983Z,14.30
2017-09-14T04:59:41.444Z,14.30
2017-09-14T05:02:08.942Z,14.30
2017-09-14T05:04:36.502Z,14.30
2017-09-14T05:07:03.976Z,14.30
2017-09-14T05:09:32.209Z,14.10
2017-09-14T05:11:59.686Z,14.10
2017-09-14T05:14:27.205Z,14.10
2017-09-14T05:16:54.705Z,14.00
2017-09-14T05:19:22.169Z,13.90
2017-09-14T05:21:49.718Z,13.90
2017-09-14T05:24:17.997Z,14.00
2017-09-14T05:26:45.486Z,13.90
2017-09-14T05:29:12.949Z,14.00
2017-09-14T05:31:40.426Z,14.00
2017-09-14T05:34:07.897Z,13.90
2017-09-14T05:36:35.365Z,13.90
2017-09-14T05:39:02.833Z,14.00
2017-09-14T05:41:30.409Z,13.90
2017-09-14T05:43:57.959Z,14.00
2017-09-14T05:46:25.434Z,13.90
2017-09-14T05:48:53.657Z,13.90
2017-09-14T05:51:21.137Z,13.90
2017-09-14T05:53:48.598Z,13.90
2017-09-14T05:56:16.078Z,13.90
2017-09-14T05:58:44.302Z,13.90
2017-09-14T06:01:11.886Z,13.90
2017-09-14T06:03:39.346Z,14.00
2017-09-14T06:06:06.833Z,14.10
2017-09-14T06:08:35.086Z,14.10
2017-09-14T06:11:02.554Z,14.10
2017-09-14T06:13:30.790Z,14.00
2017-09-14T06:15:58.249Z,14.00
2017-09-14T06:18:25.829Z,14.10
2017-09-14T06:20:53.287Z,14.10
2017-09-14T06:23:21.577Z,14.20
2017-09-14T06:25:49.889Z,14.20
2017-09-14T06:28:17.410Z,14.10
2017-09-14T06:30:45.641Z,14.10
2017-09-14T06:33:13.105Z,14.10
2017-09-14T06:35:40.569Z,14.10
2017-09-14T06:38:08.027Z,14.10
2017-09-14T06:40:35.586Z,14.10
2017-09-14T06:43:03.057Z,14.10
2017-09-14T06:45:30.529Z,14.10
2017-09-14T06:47:58.793Z,14.10
2017-09-14T06:50:27.144Z,14.10
2017-09-14T06:52:54.616Z,14.00
2017-09-14T06:55:22.085Z,14.10
2017-09-14T06:57:50.357Z,14.30
2017-09-14T07:00:17.926Z,14.30
2017-09-14T07:02:46.154Z,14.30
2017-09-14T07:05:13.622Z,14.20
2017-09-14T07:07:41.101Z,14.40
2017-09-14T07:10:09.123Z,14.50
2017-09-14T07:12:37.409Z,14.60
2017-09-14T07:15:04.950Z,14.50
2017-09-14T07:17:32.468Z,14.60
2017-09-14T07:19:59.965Z,14.50
2017-09-14T07:22:27.426Z,14.40
2017-09-14T07:24:54.927Z,14.40
2017-09-14T07:27:22.397Z,14.40
2017-09-14T07:29:50.637Z,14.40
2017-09-14T07:32:19.181Z,14.30
2017-09-14T07:34:46.660Z,14.30
2017-09-14T07:37:14.146Z,14.50
2017-09-14T07:39:41.621Z,14.60
2017-09-14T07:42:09.127Z,14.60
2017-09-14T07:44:36.597Z,14.60
2017-09-14T07:47:04.091Z,14.60
2017-09-14T07:49:31.651Z,14.60
2017-09-14T07:51:59.133Z,14.60
2017-09-14T07:54:26.599Z,14.60
2017-09-14T07:56:54.132Z,14.80
2017-09-14T07:59:22.399Z,14.90
2017-09-14T08:01:49.876Z,14.80
2017-09-14T08:04:18.111Z,14.90
2017-09-14T08:06:46.774Z,14.80
2017-09-14T08:09:14.253Z,14.90
2017-09-14T08:11:41.718Z,15.00
2017-09-14T08:14:09.178Z,15.10
2017-09-14T08:16:36.642Z,15.00
2017-09-14T08:19:04.560Z,15.00
2017-09-14T08:21:32.030Z,15.00
2017-09-14T08:23:59.494Z,15.10
2017-09-14T08:26:26.954Z,15.00
2017-09-14T08:28:54.421Z,15.00
2017-09-14T08:31:21.890Z,15.00
2017-09-14T08:33:49.357Z,15.00
2017-09-14T08:36:17.598Z,15.00
2017-09-14T08:38:45.065Z,15.00
2017-09-14T08:41:12.533Z,15.10
2017-09-14T08:43:40.002Z,15.10
2017-09-14T08:46:08.261Z,15.30
2017-09-14T08:48:35.733Z,15.20
2017-09-14T08:51:03.969Z,15.30
2017-09-14T08:53:31.432Z,15.30
2017-09-14T08:55:58.901Z,15.40
2017-09-14T08:58:26.378Z,15.40
2017-09-14T09:00:54.637Z,15.30
2017-09-14T09:03:22.109Z,15.20
2017-09-14T09:05:50.330Z,15.30
2017-09-14T09:08:17.802Z,15.30
2017-09-14T09:10:45.277Z,15.40
2017-09-14T09:13:12.765Z,15.50
2017-09-14T09:15:41.025Z,15.60
2017-09-14T09:18:08.525Z,15.50
2017-09-14T09:20:36.137Z,15.50
2017-09-14T09:23:03.607Z,15.50
2017-09-14T09:25:31.829Z,15.80
2017-09-14T09:27:59.308Z,15.70
2017-09-14T09:30:26.786Z,15.60
2017-09-14T09:32:54.250Z,15.60
2017-09-14T09:35:22.510Z,15.50
2017-09-14T09:37:49.977Z,15.50
2017-09-14T09:40:18.300Z,15.50
2017-09-14T09:42:45.765Z,15.50
2017-09-14T09:45:13.241Z,15.60
2017-09-14T09:47:40.721Z,15.60
2017-09-14T09:50:08.196Z,15.70
2017-09-14T09:52:36.649Z,15.40
2017-09-14T09:55:04.120Z,15.30
2017-09-14T09:57:32.366Z,15.40
2017-09-14T09:59:59.946Z,15.40
2017-09-14T10:02:27.453Z,15.50
2017-09-14T10:04:54.925Z,15.40
2017-09-14T10:07:22.393Z,15.40
2017-09-14T10:09:49.873Z,15.60
2017-09-14T10:12:17.429Z,15.40
2017-09-14T10:14:44.890Z,15.50
2017-09-14T10:17:12.373Z,15.50
2017-09-14T10:19:39.847Z,15.50
2017-09-14T10:22:07.353Z,15.60
2017-09-14T10:24:34.921Z,15.70
2017-09-14T10:27:02.399Z,15.70
2017-09-14T10:29:29.933Z,15.70
2017-09-14T10:31:57.592Z,15.70
2017-09-14T10:34:25.053Z,15.70
2017-09-14T10:36:53.303Z,15.80
2017-09-14T10:39:20.772Z,15.70
2017-09-14T10:41:48.343Z,15.80
2017-09-14T10:44:15.806Z,15.90
2017-09-14T10:46:44.066Z,16.10
2017-09-14T10:49:11.525Z,16.00
2017-09-14T10:51:38.993Z,16.10
2017-09-14T10:54:07.226Z,16.10
2017-09-14T10:56:34.700Z,16.00
2017-09-14T10:59:02.173Z,15.90
2017-09-14T11:01:29.642Z,15.90
2017-09-14T11:03:57.105Z,15.60
2017-09-14T11:06:25.352Z,15.40
2017-09-14T11:08:52.817Z,15.40
2017-09-14T11:11:20.380Z,15.30
2017-09-14T11:13:50.976Z,15.50
2017-09-14T11:16:18.602Z,15.50
2017-09-14T11:18:46.061Z,15.70
2017-09-14T11:21:13.534Z,15.70
2017-09-14T11:23:40.997Z,15.60
2017-09-14T11:26:08.487Z,15.30
2017-09-14T11:28:36.003Z,15.10
2017-09-14T11:31:03.510Z,15.00
2017-09-14T11:33:30.970Z,14.90
2017-09-14T11:35:58.520Z,14.60
2017-09-14T11:38:25.982Z,14.50
2017-09-14T11:40:53.449Z,14.40
2017-09-14T11:43:21.673Z,14.60
2017-09-14T11:45:49.151Z,14.60
2017-09-14T11:48:16.610Z,14.70
2017-09-14T11:50:44.969Z,14.90
2017-09-14T11:53:12.436Z,15.10
2017-09-14T11:55:39.898Z,15.30
2017-09-14T11:58:07.430Z,15.60
2017-09-14T12:00:34.923Z,15.80
2017-09-14T12:03:02.489Z,16.00
2017-09-14T12:05:30.037Z,16.10
2017-09-14T12:07:57.510Z,16.30
2017-09-14T12:10:25.746Z,16.70
2017-09-14T12:12:53.216Z,16.60
2017-09-14T12:15:20.690Z,16.80
2017-09-14T12:17:48.154Z,16.90
2017-09-14T12:20:15.610Z,16.90
2017-09-14T12:22:43.162Z,16.80
2017-09-14T12:25:10.622Z,16.80
2017-09-14T12:27:38.858Z,16.40
2017-09-14T12:30:06.346Z,16.30
2017-09-14T12:32:33.904Z,16.30
2017-09-14T12:35:01.389Z,16.20
2017-09-14T12:37:29.617Z,16.20
2017-09-14T12:39:57.088Z,16.10
2017-09-14T12:42:24.559Z,16.40
2017-09-14T12:44:52.109Z,16.50
2017-09-14T12:47:19.618Z,16.70
2017-09-14T12:49:47.184Z,16.70
2017-09-14T12:52:14.658Z,16.80
2017-09-14T12:54:42.138Z,17.00
2017-09-14T12:57:10.841Z,16.80
2017-09-14T12:59:39.290Z,17.00
2017-09-14T13:02:06.768Z,16.90
2017-09-14T13:04:34.358Z,16.70
2017-09-14T13:07:01.828Z,16.40
2017-09-14T13:09:29.289Z,16.30
2017-09-14T13:11:56.753Z,16.10
2017-09-14T13:14:24.306Z,16.10
2017-09-14T13:16:51.775Z,15.90
2017-09-14T13:19:19.247Z,15.90
2017-09-14T13:21:48.267Z,16.00
2017-09-14T13:24:15.734Z,16.10
2017-09-14T13:26:43.957Z,16.40
2017-09-14T13:29:11.430Z,16.30
2017-09-14T13:31:38.895Z,16.50
2017-09-14T13:34:06.374Z,16.50
2017-09-14T13:36:34.609Z,16.60
2017-09-14T13:39:02.076Z,16.50
2017-09-14T13:41:29.533Z,16.50
2017-09-14T13:43:57.120Z,16.50
2017-09-14T13:46:25.402Z,16.50
2017-09-14T13:51:26.132Z,16.40
2017-09-14T13:53:53.606Z,16.40
2017-09-14T13:56:21.838Z,16.30
2017-09-14T13:58:49.301Z,16.20
2017-09-14T14:01:16.899Z,16.30
2017-09-14T14:03:44.445Z,16.60
2017-09-14T14:06:11.905Z,16.70
2017-09-14T14:08:39.362Z,16.80
2017-09-14T14:11:07.634Z,16.40
2017-09-14T14:13:35.866Z,16.30
2017-09-14T14:16:03.341Z,16.30
2017-09-14T14:18:30.917Z,16.30
2017-09-14T14:20:58.381Z,16.20
2017-09-14T14:23:25.929Z,16.20
2017-09-14T14:25:53.402Z,16.10
2017-09-14T14:28:21.636Z,16.20
2017-09-14T14:30:49.222Z,16.20
2017-09-14T14:33:16.685Z,16.60
2017-09-14T14:35:44.150Z,16.80
2017-09-14T14:38:12.386Z,16.80
2017-09-14T14:40:39.847Z,16.80
2017-09-14T14:43:07.321Z,16.80
2017-09-14T14:45:34.787Z,16.60
2017-09-14T14:48:02.292Z,16.20
2017-09-14T14:50:29.800Z,16.00
2017-09-14T14:52:57.364Z,15.80
2017-09-14T14:55:24.830Z,15.70
2017-09-14T14:57:53.749Z,15.80
2017-09-14T15:00:21.212Z,15.70
2017-09-14T15:02:48.678Z,15.90
2017-09-14T15:05:16.138Z,15.90
2017-09-14T15:07:43.606Z,15.80
2017-09-14T15:10:11.072Z,15.50
2017-09-14T15:12:38.641Z,15.00
2017-09-14T15:15:06.099Z,14.40
2017-09-14T15:17:33.577Z,14.00
2017-09-14T15:20:01.830Z,13.50
2017-09-14T15:22:29.313Z,13.40
2017-09-14T15:24:57.549Z,13.50
2017-09-14T15:27:25.014Z,13.50
2017-09-14T15:29:52.506Z,13.60
2017-09-14T15:32:20.738Z,13.70
2017-09-14T15:34:48.267Z,13.60
2017-09-14T15:37:21.659Z,14.00
2017-09-14T15:39:54.886Z,15.00
2017-09-14T15:42:28.155Z,17.10
2017-09-14T15:45:01.422Z,18.80
2017-09-14T15:47:28.890Z,20.00
2017-09-14T15:50:02.108Z,20.70
2017-09-14T15:52:29.570Z,20.40
2017-09-14T15:54:57.030Z,20.50
2017-09-14T15:57:24.485Z,20.60
2017-09-14T15:59:51.954Z,20.20
2017-09-14T16:02:19.413Z,19.90
2017-09-14T16:04:46.924Z,19.60
2017-09-14T16:07:14.386Z,19.00
2017-09-14T16:09:42.586Z,18.80
2017-09-14T16:12:10.051Z,18.70
2017-09-14T16:14:37.514Z,18.80
2017-09-14T16:17:05.058Z,18.50
2017-09-14T16:19:32.521Z,18.70
2017-09-14T16:21:59.985Z,19.20
2017-09-14T16:24:27.457Z,19.50
2017-09-14T16:26:55.685Z,19.40
2017-09-14T16:29:23.174Z,19.40
2017-09-14T16:31:50.645Z,19.70
2017-09-14T16:34:18.926Z,19.20
2017-09-14T16:36:47.164Z,18.00
2017-09-14T16:39:14.622Z,18.00
2017-09-14T16:41:42.097Z,17.00
2017-09-14T16:44:10.346Z,15.80
2017-09-14T16:46:37.823Z,15.80
2017-09-14T16:49:05.281Z,15.60
2017-09-14T16:51:32.857Z,15.30
2017-09-14T16:54:01.581Z,14.70
2017-09-14T16:56:29.050Z,14.70
2017-09-14T16:58:56.600Z,14.60
2017-09-14T17:01:24.159Z,14.40
2017-09-14T17:03:51.618Z,14.40
2017-09-14T17:06:19.098Z,14.20
2017-09-14T17:08:46.565Z,14.10
2017-09-14T17:11:14.037Z,14.10
2017-09-14T17:13:42.394Z,14.00
2017-09-14T17:16:09.884Z,14.00
2017-09-14T17:18:38.123Z,14.00
2017-09-14T17:21:05.710Z,14.00
2017-09-14T17:23:34.033Z,14.00
2017-09-14T17:26:01.501Z,13.90
2017-09-14T17:28:28.964Z,13.90
2017-09-14T17:30:56.453Z,14.00
2017-09-14T17:33:24.686Z,13.90
2017-09-14T17:35:57.783Z,13.90
2017-09-14T17:38:25.242Z,13.90
2017-09-14T17:40:52.706Z,13.80
2017-09-14T17:43:20.174Z,13.70
2017-09-14T17:45:47.733Z,13.60
2017-09-14T17:48:15.202Z,13.70
2017-09-14T17:50:43.446Z,13.50
2017-09-14T17:53:10.990Z,13.50
2017-09-14T17:55:38.538Z,13.40
2017-09-14T17:58:06.038Z,13.50
2017-09-14T18:00:33.607Z,13.60
2017-09-14T18:03:01.285Z,13.70
2017-09-14T18:05:29.534Z,13.50
2017-09-14T18:07:57.197Z,13.50
2017-09-14T18:10:24.654Z,13.40
2017-09-14T18:12:52.125Z,13.30
2017-09-14T18:15:20.414Z,13.30
2017-09-14T18:17:48.655Z,13.30
2017-09-14T18:20:16.217Z,13.20
2017-09-14T18:22:43.835Z,13.20
2017-09-14T18:25:11.299Z,13.20
2017-09-14T18:27:38.820Z,13.20
2017-09-14T18:30:07.047Z,13.10
2017-09-14T18:32:34.510Z,13.10
2017-09-14T18:35:01.986Z,13.10
2017-09-14T18:37:29.450Z,13.10
2017-09-14T18:39:56.918Z,13.10
2017-09-14T18:42:25.170Z,13.00
2017-09-14T18:44:52.787Z,13.00
2017-09-14T18:47:20.266Z,13.00
2017-09-14T18:49:47.746Z,13.00
2017-09-14T18:52:15.227Z,13.00
2017-09-14T18:54:43.472Z,13.00
2017-09-14T18:57:10.942Z,13.00
2017-09-14T18:59:39.183Z,13.00
2017-09-14T19:02:06.670Z,12.90
2017-09-14T19:04:34.140Z,13.00
2017-09-14T19:07:02.382Z,12.90
2017-09-14T19:09:29.853Z,12.80
2017-09-14T19:11:57.314Z,12.80
2017-09-14T19:14:24.784Z,12.70
2017-09-14T19:16:53.045Z,12.70
2017-09-14T19:19:20.600Z,12.70
2017-09-14T19:21:48.157Z,12.60
2017-09-14T19:24:15.776Z,12.60
2017-09-14T19:26:43.292Z,12.60
2017-09-14T19:29:11.551Z,12.80
2017-09-14T19:31:39.036Z,12.70
2017-09-14T19:34:07.271Z,12.60
2017-09-14T19:36:34.737Z,12.60
2017-09-14T19:39:02.212Z,12.60
2017-09-14T19:41:30.467Z,12.60
2017-09-14T19:43:59.526Z,12.60
2017-09-14T19:46:27.005Z,12.60
2017-09-14T19:48:54.586Z,12.70
2017-09-14T19:51:22.069Z,12.70
2017-09-14T19:53:49.534Z,12.70
2017-09-14T19:56:17.010Z,12.70
2017-09-14T19:58:44.481Z,12.70
2017-09-14T20:01:11.966Z,12.70
2017-09-14T20:03:39.458Z,12.60
2017-09-14T20:06:06.949Z,12.70
2017-09-14T20:08:34.418Z,12.70
2017-09-14T20:11:01.898Z,12.70
2017-09-14T20:13:29.386Z,12.60
2017-09-14T20:15:56.862Z,12.70
2017-09-14T20:18:24.330Z,12.70
2017-09-14T20:20:51.825Z,12.80
2017-09-14T20:23:19.338Z,12.90
2017-09-14T20:25:46.814Z,12.90
2017-09-14T20:28:14.453Z,12.90
2017-09-14T20:30:41.926Z,13.00
2017-09-14T20:33:09.412Z,13.00
2017-09-14T20:35:36.883Z,12.90
2017-09-14T20:38:05.122Z,12.80
2017-09-14T20:40:32.598Z,12.80
2017-09-14T20:43:00.081Z,12.90
2017-09-14T20:45:28.318Z,12.80
2017-09-14T20:47:55.814Z,12.70
2017-09-14T20:50:24.045Z,12.90
2017-09-14T20:52:51.519Z,12.90
2017-09-14T20:55:19.023Z,12.90
2017-09-14T20:57:46.498Z,12.90
2017-09-14T21:00:13.966Z,12.90
2017-09-14T21:02:41.443Z,12.90
2017-09-14T21:05:08.916Z,12.80
2017-09-14T21:07:37.145Z,12.90
2017-09-14T21:10:04.695Z,12.80
2017-09-14T21:12:32.193Z,12.80
2017-09-14T21:14:59.675Z,12.80
2017-09-14T21:17:27.984Z,12.80
2017-09-14T21:19:55.485Z,12.80
2017-09-14T21:22:22.999Z,12.90
2017-09-14T21:24:50.465Z,12.80
2017-09-14T21:27:17.934Z,12.80
2017-09-14T21:29:45.522Z,12.80
2017-09-14T21:32:13.765Z,12.90
2017-09-14T21:34:41.353Z,12.80
2017-09-14T21:37:08.915Z,12.90
2017-09-14T21:39:36.383Z,12.90
2017-09-14T21:42:04.650Z,13.00
2017-09-14T21:44:32.895Z,13.00
2017-09-14T21:47:00.353Z,12.90
2017-09-14T21:49:28.300Z,12.90
2017-09-14T21:51:55.769Z,12.90
2017-09-14T21:54:23.252Z,12.80
2017-09-14T21:56:50.730Z,12.80
2017-09-14T21:59:18.969Z,12.80
2017-09-14T22:01:46.448Z,12.70
2017-09-14T22:04:13.914Z,12.70
2017-09-14T22:06:42.162Z,12.80
2017-09-14T22:09:09.743Z,12.70
2017-09-14T22:11:37.302Z,12.80
2017-09-14T22:14:05.551Z,12.70
2017-09-14T22:16:33.043Z,12.60
2017-09-14T22:19:01.277Z,12.70
2017-09-14T22:21:28.774Z,12.60
2017-09-14T22:23:57.010Z,12.70
2017-09-14T22:26:24.482Z,12.60
2017-09-14T22:28:53.469Z,12.60
2017-09-14T22:31:20.947Z,12.60
2017-09-14T22:33:49.177Z,12.60
2017-09-14T22:36:16.670Z,12.50
2017-09-14T22:38:44.156Z,12.60
2017-09-14T22:41:11.638Z,12.60
2017-09-14T22:43:39.106Z,12.50
2017-09-14T22:46:06.601Z,12.40
2017-09-14T22:48:34.079Z,12.40
2017-09-14T22:51:02.341Z,12.20
2017-09-14T22:53:30.569Z,12.10
2017-09-14T22:55:58.063Z,12.00
2017-09-14T22:58:25.527Z,12.00
2017-09-14T23:00:53.849Z,12.00
2017-09-14T23:03:21.314Z,12.00
2017-09-14T23:05:48.793Z,12.00
2017-09-14T23:08:16.371Z,12.00
2017-09-14T23:10:44.699Z,11.80
2017-09-14T23:13:12.180Z,11.80
2017-09-14T23:15:39.647Z,11.70
2017-09-14T23:18:07.130Z,11.70
2017-09-14T23:20:35.357Z,11.70
2017-09-14T23:23:02.859Z,11.60
2017-09-14T23:25:31.131Z,11.70
2017-09-14T23:27:58.606Z,11.70
2017-09-14T23:30:26.838Z,11.90
2017-09-14T23:32:54.319Z,11.80
2017-09-14T23:35:21.924Z,11.90
2017-09-14T23:37:49.412Z,11.90
2017-09-14T23:40:17.005Z,11.90
2017-09-14T23:42:45.254Z,11.90
2017-09-14T23:45:14.260Z,11.80
2017-09-14T23:47:41.822Z,11.80
2017-09-14T23:50:10.094Z,11.80
2017-09-14T23:52:37.569Z,11.80
2017-09-14T23:55:05.826Z,11.80
2017-09-14T23:57:34.082Z,11.80
